createdAt,value
2018-10-16T00:00:19.922Z,0.00
2018-10-16T00:01:19.285Z,0.00
2018-10-16T00:02:19.698Z,0.00
2018-10-16T00:03:20.065Z,0.00
2018-10-16T00:04:19.513Z,0.00
2018-10-16T00:05:19.850Z,0.00
2018-10-16T00:06:20.305Z,0.00
2018-10-16T00:07:19.605Z,0.00
2018-10-16T00:08:40.561Z,0.00
2018-10-16T00:09:41.035Z,0.00
2018-10-16T00:10:41.315Z,0.00
2018-10-16T00:11:40.831Z,0.00
2018-10-16T00:12:41.397Z,0.00
2018-10-16T00:13:40.866Z,0.00
2018-10-16T00:15:02.315Z,0.00
2018-10-16T00:16:23.787Z,0.00
2018-10-16T00:17:24.044Z,0.00
2018-10-16T00:18:24.395Z,0.00
2018-10-16T00:19:24.661Z,0.00
2018-10-16T00:20:23.954Z,0.00
2018-10-16T00:21:24.449Z,0.00
2018-10-16T00:22:24.734Z,0.00
2018-10-16T00:23:23.991Z,0.00
2018-10-16T00:24:24.238Z,0.00
2018-10-16T00:25:24.535Z,0.00
2018-10-16T00:26:23.792Z,0.00
2018-10-16T00:27:24.157Z,0.00
2018-10-16T00:28:24.498Z,0.00
2018-10-16T00:29:23.954Z,0.00
2018-10-16T00:30:24.237Z,0.00
2018-10-16T00:31:24.470Z,0.00
2018-10-16T00:32:24.700Z,0.00
2018-10-16T00:33:24.168Z,0.00
2018-10-16T00:34:24.535Z,0.00
2018-10-16T00:35:24.781Z,0.00
2018-10-16T00:36:23.945Z,0.00
2018-10-16T00:37:24.336Z,0.00
2018-10-16T00:38:23.849Z,0.00
2018-10-16T00:39:24.136Z,0.00
2018-10-16T00:40:24.571Z,0.00
2018-10-16T00:41:23.662Z,0.00
2018-10-16T00:42:24.219Z,0.00
2018-10-16T00:43:24.491Z,0.00
2018-10-16T00:44:24.737Z,0.00
2018-10-16T00:45:24.933Z,0.00
2018-10-16T00:46:24.211Z,0.00
2018-10-16T00:47:24.671Z,0.00
2018-10-16T00:48:24.144Z,0.00
2018-10-16T00:49:24.224Z,0.00
2018-10-16T00:50:24.577Z,0.00
2018-10-16T00:51:23.955Z,0.00
2018-10-16T00:52:24.268Z,0.00
2018-10-16T00:53:24.579Z,0.00
2018-10-16T00:54:23.862Z,0.00
2018-10-16T00:55:24.119Z,0.00
2018-10-16T00:56:24.345Z,0.00
2018-10-16T00:57:24.694Z,0.00
2018-10-16T00:58:24.187Z,0.00
2018-10-16T01:00:27.763Z,0.00
2018-10-16T01:01:28.114Z,0.00
2018-10-16T01:02:28.672Z,0.00
2018-10-16T01:03:28.208Z,0.00
2018-10-16T01:05:10.705Z,0.00
2018-10-16T01:06:11.026Z,0.00
2018-10-16T01:07:11.396Z,0.00
2018-10-16T01:08:10.686Z,0.00
2018-10-16T01:09:32.345Z,0.00
2018-10-16T01:10:32.592Z,0.00
2018-10-16T01:11:32.937Z,0.00
2018-10-16T01:12:53.215Z,0.00
2018-10-16T01:13:53.788Z,0.00
2018-10-16T01:14:54.311Z,0.00
2018-10-16T01:15:53.483Z,0.00
2018-10-16T01:16:53.806Z,0.00
2018-10-16T01:17:53.300Z,0.00
2018-10-16T01:18:53.531Z,0.00
2018-10-16T01:19:53.941Z,0.00
2018-10-16T01:20:53.336Z,0.00
2018-10-16T01:21:53.817Z,0.00
2018-10-16T01:22:53.232Z,0.00
2018-10-16T01:23:53.561Z,0.00
2018-10-16T01:24:53.768Z,0.00
2018-10-16T01:25:53.895Z,0.00
2018-10-16T01:26:54.077Z,0.00
2018-10-16T01:27:53.309Z,0.00
2018-10-16T01:29:37.839Z,0.00
2018-10-16T01:30:38.115Z,0.00
2018-10-16T01:31:38.419Z,0.00
2018-10-16T01:32:38.506Z,0.00
2018-10-16T01:33:37.920Z,0.00
2018-10-16T01:34:59.407Z,0.00
2018-10-16T01:35:59.673Z,0.00
2018-10-16T01:36:59.851Z,0.00
2018-10-16T01:37:59.963Z,0.00
2018-10-16T01:39:00.343Z,0.00
2018-10-16T01:40:00.282Z,0.00
2018-10-16T01:40:59.924Z,0.00
2018-10-16T01:42:00.137Z,0.00
2018-10-16T01:42:59.664Z,0.00
2018-10-16T01:43:59.960Z,0.00
2018-10-16T01:45:00.124Z,0.00
2018-10-16T01:45:59.357Z,0.00
2018-10-16T01:46:59.463Z,0.00
2018-10-16T01:48:00.027Z,0.00
2018-10-16T01:48:59.505Z,0.00
2018-10-16T01:50:00.046Z,0.00
2018-10-16T01:50:59.418Z,0.00
2018-10-16T01:52:22.319Z,0.00
2018-10-16T01:53:21.895Z,0.00
2018-10-16T01:54:21.288Z,0.00
2018-10-16T01:55:21.390Z,0.00
2018-10-16T01:56:21.717Z,0.00
2018-10-16T01:57:22.071Z,0.00
2018-10-16T01:58:21.301Z,0.00
2018-10-16T01:59:21.588Z,0.00
2018-10-16T02:00:43.105Z,0.00
2018-10-16T02:01:43.512Z,0.00
2018-10-16T02:02:43.887Z,0.00
2018-10-16T02:03:43.342Z,0.00
2018-10-16T02:04:43.666Z,0.00
2018-10-16T02:06:04.136Z,0.00
2018-10-16T02:07:04.450Z,0.00
2018-10-16T02:08:04.675Z,0.00
2018-10-16T02:09:05.057Z,0.00
2018-10-16T02:10:04.413Z,0.00
2018-10-16T02:11:04.660Z,0.00
2018-10-16T02:12:04.151Z,0.00
2018-10-16T02:13:04.373Z,0.00
2018-10-16T02:14:04.794Z,0.00
2018-10-16T02:15:04.175Z,0.00
2018-10-16T02:16:04.517Z,0.00
2018-10-16T02:17:04.887Z,0.00
2018-10-16T02:18:04.215Z,0.00
2018-10-16T02:19:04.518Z,0.00
2018-10-16T02:20:04.901Z,0.00
2018-10-16T02:21:04.349Z,0.00
2018-10-16T02:22:04.724Z,0.00
2018-10-16T02:23:03.970Z,0.00
2018-10-16T02:24:04.209Z,0.00
2018-10-16T02:25:04.324Z,0.00
2018-10-16T02:26:04.698Z,0.00
2018-10-16T02:27:03.861Z,0.00
2018-10-16T02:28:03.954Z,0.00
2018-10-16T02:29:04.254Z,0.00
2018-10-16T02:30:04.681Z,0.00
2018-10-16T02:31:26.044Z,0.00
2018-10-16T02:32:26.482Z,0.00
2018-10-16T02:33:26.762Z,0.00
2018-10-16T02:34:26.096Z,0.00
2018-10-16T02:35:26.623Z,0.00
2018-10-16T02:36:25.995Z,0.00
2018-10-16T02:37:26.317Z,0.00
2018-10-16T02:38:26.701Z,0.00
2018-10-16T02:39:25.879Z,0.00
2018-10-16T02:40:25.921Z,0.00
2018-10-16T02:41:26.115Z,0.00
2018-10-16T02:42:26.519Z,0.00
2018-10-16T02:43:26.629Z,0.00
2018-10-16T02:44:26.200Z,0.00
2018-10-16T02:45:26.480Z,0.00
2018-10-16T02:46:26.039Z,0.00
2018-10-16T02:47:26.522Z,0.00
2018-10-16T02:48:27.383Z,0.00
2018-10-16T02:49:26.473Z,0.00
2018-10-16T02:50:27.042Z,0.00
2018-10-16T02:51:26.593Z,0.00
2018-10-16T02:52:26.859Z,0.00
2018-10-16T02:53:26.571Z,0.00
2018-10-16T02:54:26.931Z,0.00
2018-10-16T02:55:26.422Z,0.00
2018-10-16T02:56:26.808Z,0.00
2018-10-16T02:57:25.849Z,0.00
2018-10-16T02:58:26.035Z,0.00
2018-10-16T02:59:47.665Z,0.00
2018-10-16T03:00:47.817Z,2.00
2018-10-16T03:02:11.369Z,0.00
2018-10-16T03:03:11.760Z,0.00
2018-10-16T03:04:34.873Z,0.00
2018-10-16T03:05:34.218Z,0.00
2018-10-16T03:06:54.826Z,0.00
2018-10-16T03:07:55.031Z,0.00
2018-10-16T03:08:55.182Z,0.00
2018-10-16T03:09:55.622Z,0.00
2018-10-16T03:10:55.231Z,0.00
2018-10-16T03:11:56.259Z,0.00
2018-10-16T03:13:26.646Z,0.00
2018-10-16T03:14:22.303Z,0.00
2018-10-16T03:15:22.169Z,0.00
2018-10-16T03:16:21.462Z,0.00
2018-10-16T03:17:21.847Z,0.00
2018-10-16T03:18:22.053Z,0.00
2018-10-16T03:19:21.389Z,0.00
2018-10-16T03:20:21.800Z,0.00
2018-10-16T03:21:42.277Z,0.00
2018-10-16T03:22:42.598Z,0.00
2018-10-16T03:23:42.965Z,0.00
2018-10-16T03:24:42.415Z,0.00
2018-10-16T03:25:42.679Z,0.00
2018-10-16T03:26:43.067Z,0.00
2018-10-16T03:27:42.706Z,0.00
2018-10-16T03:28:42.107Z,0.00
2018-10-16T03:30:03.375Z,0.00
2018-10-16T03:31:03.577Z,0.00
2018-10-16T03:32:03.720Z,0.00
2018-10-16T03:33:04.031Z,0.00
2018-10-16T03:34:04.054Z,0.00
2018-10-16T03:35:03.419Z,0.00
2018-10-16T03:36:03.659Z,0.00
2018-10-16T03:37:04.028Z,0.00
2018-10-16T03:38:03.383Z,0.00
2018-10-16T03:39:03.863Z,0.00
2018-10-16T03:40:04.114Z,0.00
2018-10-16T03:41:03.555Z,0.00
2018-10-16T03:42:03.953Z,0.00
2018-10-16T03:43:03.415Z,0.00
2018-10-16T03:44:03.673Z,0.00
2018-10-16T03:45:03.939Z,0.00
2018-10-16T03:46:04.179Z,0.00
2018-10-16T03:47:03.522Z,0.00
2018-10-16T03:48:03.756Z,0.00
2018-10-16T03:49:04.299Z,0.00
2018-10-16T03:50:03.609Z,0.00
2018-10-16T03:51:03.805Z,0.00
2018-10-16T03:52:04.018Z,0.00
2018-10-16T03:53:03.259Z,0.00
2018-10-16T03:54:03.471Z,0.00
2018-10-16T03:55:25.203Z,0.00
2018-10-16T03:56:25.518Z,0.00
2018-10-16T03:57:25.855Z,0.00
2018-10-16T03:59:08.117Z,0.00
2018-10-16T04:00:08.362Z,0.00
2018-10-16T04:01:07.775Z,0.00
2018-10-16T04:02:08.336Z,0.00
2018-10-16T04:03:07.617Z,0.00
2018-10-16T04:04:08.189Z,0.00
2018-10-16T04:05:07.428Z,0.00
2018-10-16T04:06:28.889Z,0.00
2018-10-16T04:07:29.111Z,0.00
2018-10-16T04:08:29.487Z,0.00
2018-10-16T04:09:29.999Z,0.00
2018-10-16T04:10:29.351Z,0.00
2018-10-16T04:11:29.807Z,0.00
2018-10-16T04:12:29.265Z,0.00
2018-10-16T04:13:29.493Z,0.00
2018-10-16T04:14:29.710Z,0.00
2018-10-16T04:15:29.034Z,0.00
2018-10-16T04:16:29.275Z,0.00
2018-10-16T04:17:29.822Z,0.00
2018-10-16T04:18:29.057Z,0.00
2018-10-16T04:19:29.324Z,0.00
2018-10-16T04:20:50.656Z,0.00
2018-10-16T04:22:02.118Z,0.00
2018-10-16T04:22:50.766Z,0.00
2018-10-16T04:23:51.043Z,0.00
2018-10-16T04:24:51.209Z,0.00
2018-10-16T04:25:51.577Z,0.00
2018-10-16T04:26:50.792Z,0.00
2018-10-16T04:27:51.253Z,0.00
2018-10-16T04:29:12.801Z,0.00
2018-10-16T04:30:18.317Z,0.00
2018-10-16T04:31:12.670Z,0.00
2018-10-16T04:32:13.177Z,0.00
2018-10-16T04:33:13.672Z,0.00
2018-10-16T04:34:55.473Z,0.00
2018-10-16T04:35:55.891Z,0.00
2018-10-16T04:36:56.204Z,0.00
2018-10-16T04:37:55.444Z,0.00
2018-10-16T04:38:55.755Z,0.00
2018-10-16T04:39:56.104Z,0.00
2018-10-16T04:40:55.626Z,0.00
2018-10-16T04:41:56.305Z,0.00
2018-10-16T04:43:16.824Z,0.00
2018-10-16T04:44:17.385Z,0.00
2018-10-16T04:45:38.873Z,0.00
2018-10-16T04:46:39.146Z,0.00
2018-10-16T04:47:39.614Z,0.00
2018-10-16T04:49:00.240Z,0.00
2018-10-16T04:50:00.773Z,0.00
2018-10-16T04:51:00.151Z,0.00
2018-10-16T04:52:00.569Z,0.00
2018-10-16T04:53:01.117Z,0.00
2018-10-16T04:54:00.291Z,0.00
2018-10-16T04:55:00.826Z,0.00
2018-10-16T04:56:00.248Z,0.00
2018-10-16T04:57:00.629Z,0.00
2018-10-16T04:58:00.906Z,0.00
2018-10-16T04:59:00.489Z,0.00
2018-10-16T05:00:00.818Z,0.00
2018-10-16T05:01:00.973Z,0.00
2018-10-16T05:02:00.398Z,0.00
2018-10-16T05:03:00.900Z,0.00
2018-10-16T05:04:00.386Z,0.00
2018-10-16T05:05:43.644Z,0.00
2018-10-16T05:06:44.017Z,0.00
2018-10-16T05:07:44.425Z,0.00
2018-10-16T05:08:44.007Z,0.00
2018-10-16T05:09:44.421Z,0.00
2018-10-16T05:11:05.040Z,0.00
2018-10-16T05:12:05.520Z,0.00
2018-10-16T05:13:05.721Z,0.00
2018-10-16T05:14:05.209Z,0.00
2018-10-16T05:15:05.600Z,1.00
2018-10-16T05:16:05.913Z,1.00
2018-10-16T05:17:05.441Z,1.00
2018-10-16T05:18:27.127Z,1.00
2018-10-16T05:19:27.547Z,1.00
2018-10-16T05:20:27.269Z,2.00
2018-10-16T05:21:27.830Z,2.00
2018-10-16T05:22:27.308Z,3.00
2018-10-16T05:24:53.358Z,3.00
2018-10-16T05:25:53.666Z,3.00
2018-10-16T05:27:37.220Z,6.00
2018-10-16T05:28:37.832Z,6.00
2018-10-16T05:29:37.186Z,8.00
2018-10-16T05:30:37.653Z,10.00
2018-10-16T05:31:38.522Z,11.00
2018-10-16T05:32:37.204Z,13.00
2018-10-16T05:33:58.743Z,17.00
2018-10-16T05:34:59.174Z,20.00
2018-10-16T05:35:59.735Z,24.00
2018-10-16T05:36:59.396Z,28.00
2018-10-16T05:37:58.897Z,32.00
2018-10-16T05:38:59.131Z,38.00
2018-10-16T05:39:59.534Z,44.00
2018-10-16T05:40:58.754Z,51.00
2018-10-16T05:41:59.234Z,57.00
2018-10-16T05:42:59.771Z,65.00
2018-10-16T05:43:59.250Z,74.00
2018-10-16T05:44:59.955Z,83.00
2018-10-16T05:46:41.490Z,100.00
2018-10-16T05:47:41.975Z,111.00
2018-10-16T05:48:42.329Z,124.00
2018-10-16T05:49:41.638Z,137.00
2018-10-16T05:50:42.115Z,151.00
2018-10-16T05:51:41.402Z,164.00
2018-10-16T05:52:41.960Z,180.00
2018-10-16T05:53:42.421Z,196.00
2018-10-16T05:54:41.954Z,213.00
2018-10-16T05:55:42.248Z,232.00
2018-10-16T05:56:41.702Z,250.00
2018-10-16T05:57:42.206Z,271.00
2018-10-16T05:58:41.454Z,291.00
2018-10-16T06:01:27.013Z,359.00
2018-10-16T06:02:25.621Z,388.00
2018-10-16T06:03:25.906Z,421.00
2018-10-16T06:05:07.512Z,481.00
2018-10-16T06:06:00.864Z,520.00
2018-10-16T06:07:01.526Z,561.00
2018-10-16T06:08:01.218Z,601.00
2018-10-16T06:09:00.861Z,638.00
2018-10-16T06:10:01.438Z,678.00
2018-10-16T06:11:01.150Z,716.00
2018-10-16T06:12:00.810Z,754.00
2018-10-16T06:13:01.310Z,793.00
2018-10-16T06:14:00.890Z,838.00
2018-10-16T06:15:01.340Z,888.00
2018-10-16T06:16:01.230Z,935.00
2018-10-16T06:17:00.921Z,983.00
2018-10-16T06:18:01.553Z,1033.00
2018-10-16T06:19:01.032Z,1088.00
2018-10-16T06:20:01.520Z,1138.00
2018-10-16T06:21:01.151Z,1192.00
2018-10-16T06:22:00.929Z,1246.00
2018-10-16T06:23:00.607Z,1301.00
2018-10-16T06:24:01.061Z,1360.00
2018-10-16T06:25:01.635Z,1422.00
2018-10-16T06:26:01.449Z,1492.00
2018-10-16T06:27:00.878Z,1563.00
2018-10-16T06:28:01.498Z,1631.00
2018-10-16T06:29:01.215Z,1707.00
2018-10-16T06:30:00.881Z,1784.00
2018-10-16T06:31:01.324Z,1860.00
2018-10-16T06:32:00.781Z,1932.00
2018-10-16T06:33:01.225Z,2007.00
2018-10-16T06:34:00.836Z,2077.00
2018-10-16T06:35:01.480Z,2153.00
2018-10-16T06:36:01.155Z,2220.00
2018-10-16T06:37:00.718Z,2285.00
2018-10-16T06:38:01.396Z,2346.00
2018-10-16T06:39:01.101Z,2397.00
2018-10-16T06:40:00.479Z,2453.00
2018-10-16T06:41:01.353Z,2508.00
2018-10-16T06:42:01.072Z,2563.00
2018-10-16T06:43:00.532Z,2609.00
2018-10-16T06:44:01.173Z,2656.00
2018-10-16T06:45:00.879Z,2702.00
2018-10-16T06:46:01.501Z,2750.00
2018-10-16T06:47:01.085Z,2817.00
2018-10-16T06:48:00.886Z,2882.00
2018-10-16T06:49:01.498Z,2954.00
2018-10-16T06:50:01.499Z,3032.00
2018-10-16T06:51:00.966Z,3126.00
2018-10-16T06:52:00.747Z,3211.00
2018-10-16T06:53:01.464Z,3302.00
2018-10-16T06:54:01.287Z,3390.00
2018-10-16T06:55:01.057Z,3477.00
2018-10-16T06:56:00.665Z,3551.00
2018-10-16T06:57:01.135Z,3627.00
2018-10-16T06:58:00.926Z,3687.00
2018-10-16T06:59:22.115Z,3766.00
2018-10-16T07:00:43.986Z,3860.00
2018-10-16T07:01:44.518Z,3928.00
2018-10-16T07:02:44.246Z,4002.00
2018-10-16T07:03:44.857Z,4075.00
2018-10-16T07:04:44.480Z,4167.00
2018-10-16T07:05:43.959Z,4250.00
2018-10-16T07:06:44.575Z,4325.00
2018-10-16T07:07:43.944Z,4391.00
2018-10-16T07:08:44.394Z,4450.00
2018-10-16T07:10:05.686Z,4531.00
2018-10-16T07:11:06.138Z,4597.00
2018-10-16T07:12:26.685Z,4717.00
2018-10-16T07:13:27.042Z,4806.00
2018-10-16T07:14:27.551Z,4890.00
2018-10-16T07:15:27.184Z,4989.00
2018-10-16T07:16:27.757Z,5092.00
2018-10-16T07:17:48.742Z,5228.00
2018-10-16T07:18:49.070Z,5324.00
2018-10-16T07:19:48.704Z,5424.00
2018-10-16T07:20:49.497Z,5561.00
2018-10-16T07:21:49.095Z,5721.00
2018-10-16T07:23:10.352Z,6731.00
2018-10-16T07:24:10.829Z,6306.00
2018-10-16T07:25:52.753Z,5954.00
2018-10-16T07:27:14.569Z,6001.00
2018-10-16T07:28:14.965Z,6077.00
2018-10-16T07:29:15.242Z,6139.00
2018-10-16T07:30:57.510Z,6282.00
2018-10-16T07:31:58.032Z,6373.00
2018-10-16T07:33:19.204Z,6515.00
2018-10-16T07:34:40.971Z,6654.00
2018-10-16T07:35:41.585Z,6777.00
2018-10-16T07:36:41.234Z,6889.00
2018-10-16T07:38:02.441Z,7034.00
2018-10-16T07:39:03.235Z,7113.00
2018-10-16T07:40:02.803Z,7201.00
2018-10-16T07:41:02.253Z,7284.00
2018-10-16T07:42:02.713Z,7375.00
2018-10-16T07:43:03.203Z,7482.00
2018-10-16T07:44:03.116Z,7611.00
2018-10-16T07:45:34.930Z,7784.00
2018-10-16T07:46:46.661Z,7990.00
2018-10-16T07:47:45.978Z,8149.00
2018-10-16T07:49:07.716Z,8381.00
2018-10-16T07:50:08.374Z,8537.00
2018-10-16T07:51:07.877Z,8661.00
2018-10-16T07:52:08.363Z,8791.00
2018-10-16T07:53:08.250Z,8918.00
2018-10-16T07:54:07.837Z,9018.00
2018-10-16T07:55:08.423Z,9105.00
2018-10-16T07:56:50.518Z,9242.00
2018-10-16T07:57:50.960Z,9295.00
2018-10-16T07:58:50.355Z,9330.00
2018-10-16T07:59:51.084Z,9316.00
2018-10-16T08:00:50.487Z,9284.00
2018-10-16T08:01:51.164Z,9256.00
2018-10-16T08:02:50.693Z,9219.00
2018-10-16T08:03:51.128Z,9177.00
2018-10-16T08:04:50.591Z,9133.00
2018-10-16T08:06:12.798Z,9131.00
2018-10-16T08:07:13.220Z,9156.00
2018-10-16T08:08:12.635Z,9203.00
2018-10-16T08:09:13.262Z,9295.00
2018-10-16T08:10:13.665Z,9434.00
2018-10-16T08:11:13.233Z,9603.00
2018-10-16T08:12:13.387Z,9791.00
2018-10-16T08:13:12.862Z,9935.00
2018-10-16T08:14:13.340Z,10075.00
2018-10-16T08:15:12.949Z,10203.00
2018-10-16T08:16:34.202Z,10358.00
2018-10-16T08:17:34.748Z,10489.00
2018-10-16T08:18:34.101Z,10642.00
2018-10-16T08:19:34.726Z,10821.00
2018-10-16T08:20:34.314Z,10995.00
2018-10-16T08:21:34.688Z,11104.00
2018-10-16T08:22:34.276Z,11164.00
2018-10-16T08:23:35.076Z,11161.00
2018-10-16T08:24:34.660Z,11154.00
2018-10-16T08:25:34.096Z,11120.00
2018-10-16T08:26:34.639Z,11070.00
2018-10-16T08:27:34.103Z,11030.00
2018-10-16T08:28:55.775Z,11065.00
2018-10-16T08:29:56.406Z,11161.00
2018-10-16T08:30:55.992Z,11315.00
2018-10-16T08:31:56.720Z,11508.00
2018-10-16T08:32:56.311Z,11746.00
2018-10-16T08:33:55.968Z,12020.00
2018-10-16T08:34:57.252Z,12200.00
2018-10-16T08:35:56.024Z,12311.00
2018-10-16T08:37:18.738Z,12394.00
2018-10-16T08:38:19.257Z,12417.00
2018-10-16T08:39:18.883Z,12408.00
2018-10-16T08:40:19.456Z,12338.00
2018-10-16T08:41:19.332Z,12290.00
2018-10-16T08:42:19.147Z,12477.00
2018-10-16T08:43:18.639Z,13491.00
2018-10-16T08:44:19.162Z,17688.00
2018-10-16T08:45:18.674Z,12471.00
2018-10-16T08:46:19.093Z,12054.00
2018-10-16T08:47:18.596Z,11858.00
2018-10-16T08:48:21.376Z,11782.00
2018-10-16T08:49:19.125Z,11855.00
2018-10-16T08:50:19.252Z,12322.00
2018-10-16T08:51:18.772Z,12683.00
2018-10-16T08:52:19.520Z,14496.00
2018-10-16T08:53:19.174Z,13947.00
2018-10-16T08:54:18.785Z,18768.00
2018-10-16T08:55:21.242Z,13233.00
2018-10-16T08:56:40.167Z,13024.00
2018-10-16T08:57:40.994Z,13077.00
2018-10-16T08:58:40.906Z,12769.00
2018-10-16T08:59:40.856Z,12934.00
2018-10-16T09:01:01.649Z,19424.00
2018-10-16T09:02:02.158Z,14831.00
2018-10-16T09:03:02.664Z,12844.00
2018-10-16T09:04:02.638Z,15613.00
2018-10-16T09:05:23.732Z,13154.00
2018-10-16T09:06:25.166Z,17520.00
2018-10-16T09:07:24.894Z,17552.00
2018-10-16T09:08:24.598Z,17264.00
2018-10-16T09:09:25.839Z,18608.00
2018-10-16T09:10:24.437Z,19296.00
2018-10-16T09:11:25.382Z,21696.00
2018-10-16T09:12:24.329Z,17280.00
2018-10-16T09:13:23.955Z,23640.00
2018-10-16T09:14:24.543Z,21808.00
2018-10-16T09:15:24.412Z,16167.00
2018-10-16T09:16:45.522Z,23408.00
2018-10-16T09:17:46.029Z,23088.00
2018-10-16T09:19:06.893Z,20336.00
2018-10-16T09:20:07.653Z,22376.00
2018-10-16T09:21:29.758Z,23264.00
2018-10-16T09:22:29.396Z,23936.00
2018-10-16T09:23:30.017Z,24472.00
2018-10-16T09:24:30.123Z,24960.00
2018-10-16T09:25:28.731Z,25120.00
2018-10-16T09:26:29.441Z,25200.00
2018-10-16T09:27:30.144Z,25352.00
2018-10-16T09:28:29.143Z,24512.00
2018-10-16T09:29:28.839Z,20096.00
2018-10-16T09:30:29.916Z,18992.00
2018-10-16T09:31:29.723Z,17256.00
2018-10-16T09:32:29.459Z,16029.00
2018-10-16T09:33:29.182Z,16084.00
2018-10-16T09:34:29.572Z,17056.00
2018-10-16T09:35:29.130Z,18216.00
2018-10-16T09:36:29.910Z,19608.00
2018-10-16T09:37:29.560Z,20736.00
2018-10-16T09:38:29.248Z,21568.00
2018-10-16T09:39:29.111Z,22072.00
2018-10-16T09:40:28.921Z,22360.00
2018-10-16T09:41:29.505Z,22368.00
2018-10-16T09:42:29.118Z,22120.00
2018-10-16T09:43:28.732Z,21552.00
2018-10-16T09:44:29.128Z,20664.00
2018-10-16T09:45:29.517Z,19664.00
2018-10-16T09:46:50.477Z,18792.00
2018-10-16T09:47:51.021Z,18512.00
2018-10-16T09:48:54.258Z,18256.00
2018-10-16T09:49:55.786Z,18280.00
2018-10-16T09:50:51.213Z,20728.00
2018-10-16T09:51:53.482Z,18512.00
2018-10-16T09:52:51.504Z,18720.00
2018-10-16T09:53:51.245Z,19800.00
2018-10-16T09:54:50.937Z,22216.00
2018-10-16T09:55:50.845Z,24256.00
2018-10-16T09:56:51.336Z,31584.00
2018-10-16T09:57:51.205Z,33744.00
2018-10-16T09:59:12.273Z,33160.00
2018-10-16T10:00:13.027Z,32544.00
2018-10-16T10:01:12.747Z,30896.00
2018-10-16T10:02:33.559Z,29216.00
2018-10-16T10:03:34.277Z,27736.00
2018-10-16T10:04:55.364Z,28152.00
2018-10-16T10:05:55.892Z,27080.00
2018-10-16T10:06:55.547Z,25504.00
2018-10-16T10:07:56.146Z,27408.00
2018-10-16T10:08:55.872Z,26856.00
2018-10-16T10:09:55.336Z,26336.00
2018-10-16T10:10:55.710Z,25936.00
2018-10-16T10:11:55.314Z,25496.00
2018-10-16T10:12:55.716Z,25104.00
2018-10-16T10:14:16.450Z,24984.00
2018-10-16T10:15:17.133Z,25080.00
2018-10-16T10:16:16.767Z,25200.00
2018-10-16T10:17:17.379Z,25208.00
2018-10-16T10:18:16.997Z,25520.00
2018-10-16T10:19:17.303Z,25720.00
2018-10-16T10:20:17.084Z,25960.00
2018-10-16T10:21:16.630Z,26224.00
2018-10-16T10:22:38.550Z,26880.00
2018-10-16T10:23:39.311Z,27256.00
2018-10-16T10:24:39.118Z,25952.00
2018-10-16T10:25:38.649Z,24472.00
2018-10-16T10:26:39.134Z,25344.00
2018-10-16T10:27:38.773Z,26944.00
2018-10-16T10:28:39.498Z,27040.00
2018-10-16T10:29:39.019Z,26568.00
2018-10-16T10:31:00.235Z,25776.00
2018-10-16T10:32:21.912Z,25384.00
2018-10-16T10:33:22.553Z,25152.00
2018-10-16T10:34:22.493Z,24888.00
2018-10-16T10:35:22.254Z,24704.00
2018-10-16T10:36:22.046Z,24760.00
2018-10-16T10:37:22.885Z,24648.00
2018-10-16T10:38:22.355Z,24712.00
2018-10-16T10:39:22.897Z,24688.00
2018-10-16T10:40:22.812Z,24648.00
2018-10-16T10:41:22.478Z,24648.00
2018-10-16T10:42:22.358Z,24624.00
2018-10-16T10:43:22.078Z,24656.00
2018-10-16T10:44:22.966Z,24776.00
2018-10-16T10:45:22.749Z,24824.00
2018-10-16T10:46:22.374Z,24928.00
2018-10-16T10:47:22.031Z,24928.00
2018-10-16T10:48:22.787Z,25008.00
2018-10-16T10:49:22.407Z,24880.00
2018-10-16T10:50:22.348Z,24968.00
2018-10-16T10:51:22.536Z,25072.00
2018-10-16T10:52:22.619Z,25016.00
2018-10-16T10:53:44.389Z,24912.00
2018-10-16T10:54:44.152Z,25040.00
2018-10-16T10:56:05.595Z,24960.00
2018-10-16T10:57:06.387Z,25008.00
2018-10-16T10:58:06.403Z,25088.00
2018-10-16T10:59:06.361Z,24872.00
2018-10-16T11:00:06.332Z,24640.00
2018-10-16T11:01:06.050Z,24768.00
2018-10-16T11:02:28.549Z,24928.00
2018-10-16T11:03:29.386Z,25040.00
2018-10-16T11:04:29.419Z,25112.00
2018-10-16T11:05:28.980Z,25208.00
2018-10-16T11:06:28.825Z,25016.00
2018-10-16T11:07:29.438Z,25128.00
2018-10-16T11:08:29.236Z,25128.00
2018-10-16T11:09:29.249Z,24928.00
2018-10-16T11:10:28.797Z,24672.00
2018-10-16T11:11:29.933Z,24536.00
2018-10-16T11:12:28.666Z,24616.00
2018-10-16T11:13:28.565Z,24520.00
2018-10-16T11:14:29.249Z,24472.00
2018-10-16T11:15:28.768Z,24392.00
2018-10-16T11:16:28.276Z,24416.00
2018-10-16T11:17:50.868Z,24624.00
2018-10-16T11:18:51.371Z,24680.00
2018-10-16T11:19:50.846Z,24184.00
2018-10-16T11:20:51.539Z,24616.00
2018-10-16T11:21:51.077Z,24536.00
2018-10-16T11:22:50.812Z,24600.00
2018-10-16T11:23:51.448Z,24536.00
2018-10-16T11:24:51.070Z,24384.00
2018-10-16T11:25:50.660Z,24896.00
2018-10-16T11:26:51.299Z,24936.00
2018-10-16T11:28:12.346Z,24656.00
2018-10-16T11:29:12.917Z,26280.00
2018-10-16T11:30:12.833Z,27088.00
2018-10-16T11:31:12.771Z,24648.00
2018-10-16T11:32:13.502Z,24144.00
2018-10-16T11:33:13.629Z,19928.00
2018-10-16T11:34:35.145Z,21144.00
2018-10-16T11:35:35.877Z,24216.00
2018-10-16T11:36:36.483Z,26928.00
2018-10-16T11:37:35.269Z,26592.00
2018-10-16T11:38:56.862Z,26344.00
2018-10-16T11:39:57.230Z,26448.00
2018-10-16T11:40:57.654Z,25400.00
2018-10-16T11:41:57.541Z,23944.00
2018-10-16T11:42:57.225Z,22952.00
2018-10-16T11:43:57.761Z,25360.00
2018-10-16T11:44:57.584Z,25192.00
2018-10-16T11:45:57.464Z,25808.00
2018-10-16T11:47:18.383Z,25824.00
2018-10-16T11:48:19.201Z,26064.00
2018-10-16T11:49:18.790Z,26608.00
2018-10-16T11:50:18.668Z,27448.00
2018-10-16T11:51:18.355Z,28120.00
2018-10-16T11:52:19.112Z,29256.00
2018-10-16T11:53:18.863Z,30104.00
2018-10-16T11:54:18.563Z,30488.00
2018-10-16T11:55:19.167Z,32072.00
2018-10-16T11:56:18.672Z,32752.00
2018-10-16T11:58:03.533Z,29976.00
2018-10-16T11:59:04.221Z,30992.00
2018-10-16T12:00:03.983Z,34544.00
2018-10-16T12:01:03.824Z,34648.00
2018-10-16T12:02:25.153Z,33224.00
2018-10-16T12:03:25.887Z,34296.00
2018-10-16T12:04:46.689Z,37304.00
2018-10-16T12:05:47.192Z,38784.00
2018-10-16T12:06:46.802Z,39232.00
2018-10-16T12:07:47.414Z,40152.00
2018-10-16T12:08:46.970Z,40320.00
2018-10-16T12:09:47.482Z,38912.00
2018-10-16T12:10:47.006Z,37536.00
2018-10-16T12:11:46.712Z,36672.00
2018-10-16T12:12:47.422Z,34192.00
2018-10-16T12:13:47.145Z,33304.00
2018-10-16T12:15:08.523Z,35800.00
2018-10-16T12:16:30.297Z,36696.00
2018-10-16T12:17:31.040Z,36512.00
2018-10-16T12:18:30.634Z,37776.00
2018-10-16T12:19:56.065Z,37520.00
2018-10-16T12:20:55.625Z,36296.00
2018-10-16T12:21:55.412Z,36512.00
2018-10-16T12:22:55.271Z,37680.00
2018-10-16T12:24:17.425Z,37096.00
2018-10-16T12:25:18.246Z,39032.00
2018-10-16T12:26:18.006Z,40896.00
2018-10-16T12:27:17.770Z,40656.00
2018-10-16T12:28:17.465Z,39864.00
2018-10-16T12:29:18.337Z,39776.00
2018-10-16T12:30:18.399Z,40528.00
2018-10-16T12:31:18.252Z,40968.00
2018-10-16T12:32:18.063Z,40432.00
2018-10-16T12:33:18.091Z,40136.00
2018-10-16T12:34:39.457Z,40280.00
2018-10-16T12:35:40.100Z,39832.00
2018-10-16T12:36:39.630Z,39472.00
2018-10-16T12:37:40.138Z,39536.00
2018-10-16T12:38:39.778Z,40192.00
2018-10-16T12:39:40.861Z,31360.00
2018-10-16T12:41:02.284Z,27272.00
2018-10-16T12:42:02.148Z,25384.00
2018-10-16T12:43:03.213Z,25512.00
2018-10-16T12:44:02.617Z,26536.00
2018-10-16T12:45:02.146Z,26440.00
2018-10-16T12:46:03.032Z,27784.00
2018-10-16T12:47:02.770Z,35552.00
2018-10-16T12:48:04.737Z,35872.00
2018-10-16T12:49:02.437Z,38544.00
2018-10-16T12:50:01.983Z,37256.00
2018-10-16T12:51:02.567Z,38256.00
2018-10-16T12:52:02.103Z,40264.00
2018-10-16T12:53:02.596Z,40064.00
2018-10-16T12:54:23.559Z,42768.00
2018-10-16T12:55:25.013Z,44096.00
2018-10-16T12:56:24.659Z,45576.00
2018-10-16T12:57:24.248Z,44824.00
2018-10-16T12:58:24.261Z,45936.00
2018-10-16T12:59:24.059Z,48808.00
2018-10-16T13:00:44.679Z,44152.00
2018-10-16T13:01:45.288Z,34200.00
2018-10-16T13:02:45.167Z,29344.00
2018-10-16T13:03:49.536Z,28264.00
2018-10-16T13:04:47.620Z,25624.00
2018-10-16T13:05:45.531Z,28112.00
2018-10-16T13:07:06.275Z,25776.00
2018-10-16T13:08:07.012Z,26024.00